sensor_id;sensor_type;location;lat;lon;timestamp;P1;durP1;ratioP1;P2;durP2;ratioP2
30337;SDS011;17143;51.888;5.408;2022-08-19T00:02:26;7.10;;;6.00;;
30337;SDS011;17143;51.888;5.408;2022-08-19T00:17:28;8.17;;;6.13;;
30337;SDS011;17143;51.888;5.408;2022-08-19T00:32:30;6.87;;;6.10;;
30337;SDS011;17143;51.888;5.408;2022-08-19T00:47:32;7.73;;;6.93;;
30337;SDS011;17143;51.888;5.408;2022-08-19T01:02:34;9.37;;;8.37;;
30337;SDS011;17143;51.888;5.408;2022-08-19T01:17:38;9.97;;;8.90;;
30337;SDS011;17143;51.888;5.408;2022-08-19T01:32:42;10.67;;;9.57;;
30337;SDS011;17143;51.888;5.408;2022-08-19T01:47:44;10.27;;;9.27;;
30337;SDS011;17143;51.888;5.408;2022-08-19T02:02:46;9.53;;;8.30;;
30337;SDS011;17143;51.888;5.408;2022-08-19T02:17:48;7.77;;;6.97;;
30337;SDS011;17143;51.888;5.408;2022-08-19T02:32:50;9.30;;;7.40;;
30337;SDS011;17143;51.888;5.408;2022-08-19T02:47:52;8.97;;;8.07;;
30337;SDS011;17143;51.888;5.408;2022-08-19T03:02:54;13.33;;;10.80;;
30337;SDS011;17143;51.888;5.408;2022-08-19T03:17:57;15.27;;;11.90;;
30337;SDS011;17143;51.888;5.408;2022-08-19T03:32:59;13.30;;;10.37;;
30337;SDS011;17143;51.888;5.408;2022-08-19T03:48:01;14.53;;;10.83;;
30337;SDS011;17143;51.888;5.408;2022-08-19T04:03:03;13.53;;;10.77;;
30337;SDS011;17143;51.888;5.408;2022-08-19T04:18:05;16.97;;;12.60;;
30337;SDS011;17143;51.888;5.408;2022-08-19T04:33:07;16.37;;;12.17;;
30337;SDS011;17143;51.888;5.408;2022-08-19T04:48:10;17.13;;;12.03;;
30337;SDS011;17143;51.888;5.408;2022-08-19T05:03:12;18.10;;;13.20;;
30337;SDS011;17143;51.888;5.408;2022-08-19T05:18:14;21.93;;;14.20;;
30337;SDS011;17143;51.888;5.408;2022-08-19T05:33:16;20.13;;;14.43;;
30337;SDS011;17143;51.888;5.408;2022-08-19T05:48:18;24.37;;;17.30;;
30337;SDS011;17143;51.888;5.408;2022-08-19T06:03:20;26.53;;;18.53;;
30337;SDS011;17143;51.888;5.408;2022-08-19T06:18:22;42.13;;;24.80;;
30337;SDS011;17143;51.888;5.408;2022-08-19T06:33:24;48.93;;;27.80;;
30337;SDS011;17143;51.888;5.408;2022-08-19T06:48:26;54.07;;;29.30;;
30337;SDS011;17143;51.888;5.408;2022-08-19T07:03:28;48.17;;;27.63;;
30337;SDS011;17143;51.888;5.408;2022-08-19T07:18:32;43.73;;;25.03;;
30337;SDS011;17143;51.888;5.408;2022-08-19T07:33:35;43.07;;;24.47;;
30337;SDS011;17143;51.888;5.408;2022-08-19T07:48:37;39.77;;;24.43;;
30337;SDS011;17143;51.888;5.408;2022-08-19T08:03:39;35.43;;;23.17;;
30337;SDS011;17143;51.888;5.408;2022-08-19T08:18:41;37.53;;;21.33;;
30337;SDS011;17143;51.888;5.408;2022-08-19T08:33:43;37.37;;;21.27;;
30337;SDS011;17143;51.888;5.408;2022-08-19T08:48:46;39.43;;;21.57;;
30337;SDS011;17143;51.888;5.408;2022-08-19T09:03:53;35.50;;;19.87;;
30337;SDS011;17143;51.888;5.408;2022-08-19T09:19:05;27.50;;;17.50;;
30337;SDS011;17143;51.888;5.408;2022-08-19T09:34:08;28.87;;;17.27;;
30337;SDS011;17143;51.888;5.408;2022-08-19T09:49:10;28.07;;;17.50;;
30337;SDS011;17143;51.888;5.408;2022-08-19T10:04:12;32.30;;;17.30;;
30337;SDS011;17143;51.888;5.408;2022-08-19T10:19:14;33.57;;;18.70;;
30337;SDS011;17143;51.888;5.408;2022-08-19T10:34:16;31.30;;;19.87;;
30337;SDS011;17143;51.888;5.408;2022-08-19T10:49:18;33.23;;;19.97;;
30337;SDS011;17143;51.888;5.408;2022-08-19T11:04:20;30.67;;;18.20;;
30337;SDS011;17143;51.888;5.408;2022-08-19T11:19:22;30.20;;;18.17;;
30337;SDS011;17143;51.888;5.408;2022-08-19T11:34:25;25.53;;;17.17;;
30337;SDS011;17143;51.888;5.408;2022-08-19T11:49:28;25.70;;;17.23;;
30337;SDS011;17143;51.888;5.408;2022-08-19T12:04:30;22.40;;;15.83;;
30337;SDS011;17143;51.888;5.408;2022-08-19T12:19:32;17.47;;;13.03;;
30337;SDS011;17143;51.888;5.408;2022-08-19T12:34:34;16.13;;;12.40;;
30337;SDS011;17143;51.888;5.408;2022-08-19T12:49:36;10.93;;;8.80;;
30337;SDS011;17143;51.888;5.408;2022-08-19T13:04:39;12.17;;;9.27;;
30337;SDS011;17143;51.888;5.408;2022-08-19T13:19:41;10.83;;;6.60;;
30337;SDS011;17143;51.888;5.408;2022-08-19T13:34:43;9.20;;;5.50;;
30337;SDS011;17143;51.888;5.408;2022-08-19T13:49:45;14.57;;;10.17;;
30337;SDS011;17143;51.888;5.408;2022-08-19T14:04:47;9.47;;;6.87;;
30337;SDS011;17143;51.888;5.408;2022-08-19T14:19:49;12.13;;;7.10;;
30337;SDS011;17143;51.888;5.408;2022-08-19T14:34:50;2.30;;;2.20;;
30337;SDS011;17143;51.888;5.408;2022-08-19T14:49:53;5.30;;;2.00;;
30337;SDS011;17143;51.888;5.408;2022-08-19T15:04:55;6.10;;;1.90;;
30337;SDS011;17143;51.888;5.408;2022-08-19T15:19:57;3.90;;;2.40;;
30337;SDS011;17143;51.888;5.408;2022-08-19T15:34:59;5.03;;;2.90;;
30337;SDS011;17143;51.888;5.408;2022-08-19T15:50:02;4.23;;;3.53;;
30337;SDS011;17143;51.888;5.408;2022-08-19T16:05:09;4.60;;;3.80;;
30337;SDS011;17143;51.888;5.408;2022-08-19T16:20:13;3.27;;;2.40;;
30337;SDS011;17143;51.888;5.408;2022-08-19T16:35:15;2.70;;;2.50;;
30337;SDS011;17143;51.888;5.408;2022-08-19T16:50:17;4.20;;;3.47;;
30337;SDS011;17143;51.888;5.408;2022-08-19T17:05:19;5.10;;;4.60;;
30337;SDS011;17143;51.888;5.408;2022-08-19T17:20:22;5.40;;;4.73;;
30337;SDS011;17143;51.888;5.408;2022-08-19T17:35:24;3.83;;;1.97;;
30337;SDS011;17143;51.888;5.408;2022-08-19T17:50:26;4.00;;;2.33;;
30337;SDS011;17143;51.888;5.408;2022-08-19T18:05:29;3.97;;;3.20;;
30337;SDS011;17143;51.888;5.408;2022-08-19T18:20:32;6.67;;;3.23;;
30337;SDS011;17143;51.888;5.408;2022-08-19T18:35:34;4.37;;;2.40;;
30337;SDS011;17143;51.888;5.408;2022-08-19T18:50:36;2.23;;;2.00;;
30337;SDS011;17143;51.888;5.408;2022-08-19T19:05:38;2.40;;;1.70;;
30337;SDS011;17143;51.888;5.408;2022-08-19T19:20:40;3.63;;;2.30;;
30337;SDS011;17143;51.888;5.408;2022-08-19T19:35:42;3.57;;;3.20;;
30337;SDS011;17143;51.888;5.408;2022-08-19T19:50:45;8.23;;;3.33;;
30337;SDS011;17143;51.888;5.408;2022-08-19T20:05:47;4.70;;;2.63;;
30337;SDS011;17143;51.888;5.408;2022-08-19T20:20:50;4.00;;;2.73;;
30337;SDS011;17143;51.888;5.408;2022-08-19T20:35:52;4.17;;;3.30;;
30337;SDS011;17143;51.888;5.408;2022-08-19T20:50:55;4.10;;;3.30;;
30337;SDS011;17143;51.888;5.408;2022-08-19T21:05:58;4.43;;;3.80;;
30337;SDS011;17143;51.888;5.408;2022-08-19T21:21:00;6.63;;;4.77;;
30337;SDS011;17143;51.888;5.408;2022-08-19T21:36:02;5.43;;;4.93;;
30337;SDS011;17143;51.888;5.408;2022-08-19T21:51:05;5.67;;;5.17;;
30337;SDS011;17143;51.888;5.408;2022-08-19T22:06:07;6.17;;;5.20;;
30337;SDS011;17143;51.888;5.408;2022-08-19T22:21:10;7.97;;;5.13;;
30337;SDS011;17143;51.888;5.408;2022-08-19T22:36:13;6.57;;;5.07;;
30337;SDS011;17143;51.888;5.408;2022-08-19T22:51:15;7.97;;;5.47;;
30337;SDS011;17143;51.888;5.408;2022-08-19T23:06:17;8.80;;;6.30;;
30337;SDS011;17143;51.888;5.408;2022-08-19T23:21:19;9.10;;;6.20;;
30337;SDS011;17143;51.888;5.408;2022-08-19T23:36:22;10.77;;;7.13;;
30337;SDS011;17143;51.888;5.408;2022-08-19T23:51:24;9.43;;;6.27;;
